LNK675 FACT-FAPE
Flight info
| Callsign | LNK675 |
|---|---|
| Flight time | N/A |
| Altitude | 35000 |
| Route | OKTED UQ12 XUGOL UQ56 OKSET DCT PEV |
| Aircraft | E190/M-SDE3GILORVW/S |
Departure
| Time | N/A |
|---|---|
| Airport | Cape Town International Airport (FACT) |
Arrival
| Time | 2026-04-17 17:23 |
|---|---|
| Airport | Chief Dawid Stuurman International Airport (FAPE) |
| Time | Latitude | Longitude | Altitude | Speed | Heading |
|---|---|---|---|---|---|
| 2026-04-17 16:42 | -34.20514 | 21.50735 | 36433 ft | 497 kts | 84° |
| 2026-04-17 16:42 | -34.20581 | 21.54915 | 36585 ft | 497 kts | 84° |
| 2026-04-17 16:42 | -34.20647 | 21.59076 | 36884 ft | 492 kts | 84° |
| 2026-04-17 16:42 | -34.20710 | 21.63231 | 36875 ft | 497 kts | 84° |
| 2026-04-17 16:43 | -34.20835 | 21.71636 | 36905 ft | 503 kts | 84° |
| 2026-04-17 16:43 | -34.20958 | 21.80161 | 36732 ft | 511 kts | 84° |
| 2026-04-17 16:44 | -34.21077 | 21.88695 | 36790 ft | 512 kts | 84° |
| 2026-04-17 16:44 | -34.21190 | 21.97336 | 36778 ft | 515 kts | 84° |
| 2026-04-17 16:45 | -34.21297 | 22.06007 | 36751 ft | 517 kts | 84° |
| 2026-04-17 16:45 | -34.21401 | 22.14692 | 36758 ft | 513 kts | 84° |
| 2026-04-17 16:46 | -34.21496 | 22.23219 | 36749 ft | 510 kts | 83° |
| 2026-04-17 16:46 | -34.21584 | 22.31783 | 36790 ft | 510 kts | 83° |
| 2026-04-17 16:47 | -34.21664 | 22.40359 | 36771 ft | 510 kts | 83° |
| 2026-04-17 16:47 | -34.21738 | 22.48928 | 36808 ft | 507 kts | 82° |
| 2026-04-17 16:48 | -34.21806 | 22.57452 | 36770 ft | 506 kts | 82° |
| 2026-04-17 16:48 | -34.21868 | 22.65973 | 36780 ft | 506 kts | 82° |
| 2026-04-17 16:49 | -34.21925 | 22.74478 | 36776 ft | 506 kts | 82° |
| 2026-04-17 16:49 | -34.21976 | 22.82915 | 36771 ft | 506 kts | 82° |
| 2026-04-17 16:50 | -34.22019 | 22.91411 | 36784 ft | 505 kts | 82° |
| 2026-04-17 16:50 | -34.22058 | 22.99906 | 36767 ft | 506 kts | 82° |
| 2026-04-17 16:51 | -34.22092 | 23.08419 | 36769 ft | 506 kts | 82° |
| 2026-04-17 16:51 | -34.22121 | 23.16907 | 36738 ft | 505 kts | 82° |
| 2026-04-17 16:52 | -34.22144 | 23.25388 | 36755 ft | 505 kts | 81° |
| 2026-04-17 16:52 | -34.22159 | 23.33832 | 36757 ft | 506 kts | 81° |
| 2026-04-17 16:53 | -34.22170 | 23.42342 | 36469 ft | 506 kts | 81° |
| 2026-04-17 16:53 | -34.22178 | 23.46552 | 36152 ft | 493 kts | 81° |
| 2026-04-17 16:53 | -34.22182 | 23.50672 | 35398 ft | 491 kts | 81° |
| 2026-04-17 16:54 | -34.22184 | 23.54773 | 34855 ft | 485 kts | 81° |
| 2026-04-17 16:54 | -34.22185 | 23.58847 | 34143 ft | 484 kts | 80° |
| 2026-04-17 16:54 | -34.22184 | 23.62903 | 33484 ft | 481 kts | 80° |
| 2026-04-17 16:54 | -34.22183 | 23.66924 | 32865 ft | 476 kts | 80° |
| 2026-04-17 16:55 | -34.22184 | 23.70899 | 32212 ft | 471 kts | 80° |
| 2026-04-17 16:55 | -34.22179 | 23.74842 | 31619 ft | 466 kts | 79° |
| 2026-04-17 16:55 | -34.22173 | 23.78732 | 31024 ft | 460 kts | 80° |
| 2026-04-17 16:55 | -34.22165 | 23.82590 | 30366 ft | 458 kts | 80° |
| 2026-04-17 16:56 | -34.22160 | 23.86376 | 29787 ft | 454 kts | 79° |
| 2026-04-17 16:56 | -34.22154 | 23.90186 | 29145 ft | 451 kts | 79° |
| 2026-04-17 16:56 | -34.22147 | 23.93957 | 28562 ft | 449 kts | 79° |
| 2026-04-17 16:56 | -34.22132 | 23.97740 | 27977 ft | 451 kts | 79° |
| 2026-04-17 16:57 | -34.22116 | 24.01567 | 27360 ft | 457 kts | 79° |
| 2026-04-17 16:57 | -34.22098 | 24.05413 | 26760 ft | 458 kts | 79° |
| 2026-04-17 16:57 | -34.22086 | 24.09251 | 26140 ft | 456 kts | 80° |
| 2026-04-17 16:57 | -34.22076 | 24.13064 | 25544 ft | 454 kts | 79° |
| 2026-04-17 16:58 | -34.22059 | 24.16871 | 24940 ft | 451 kts | 79° |
| 2026-04-17 16:58 | -34.22040 | 24.20648 | 24339 ft | 448 kts | 79° |
| 2026-04-17 16:58 | -34.22020 | 24.24394 | 23747 ft | 445 kts | 79° |
| 2026-04-17 16:58 | -34.21996 | 24.28120 | 23123 ft | 442 kts | 79° |
| 2026-04-17 16:59 | -34.21978 | 24.31815 | 22557 ft | 436 kts | 80° |
| 2026-04-17 16:59 | -34.22092 | 24.35502 | 21461 ft | 448 kts | 85° |
| 2026-04-17 16:59 | -34.22023 | 24.39162 | 20934 ft | 423 kts | 72° |
| 2026-04-17 16:59 | -34.21564 | 24.42608 | 20553 ft | 402 kts | 64° |
| 2026-04-17 17:00 | -34.20588 | 24.45634 | 20257 ft | 380 kts | 55° |
| 2026-04-17 17:00 | -34.19593 | 24.48594 | 19982 ft | 381 kts | 57° |
| 2026-04-17 17:00 | -34.18619 | 24.51543 | 19784 ft | 385 kts | 57° |
| 2026-04-17 17:00 | -34.17640 | 24.54559 | 19594 ft | 387 kts | 57° |
| 2026-04-17 17:01 | -34.16658 | 24.57596 | 19383 ft | 389 kts | 58° |
| 2026-04-17 17:01 | -34.15681 | 24.60642 | 19144 ft | 389 kts | 58° |
| 2026-04-17 17:01 | -34.14708 | 24.63680 | 18896 ft | 388 kts | 58° |
| 2026-04-17 17:01 | -34.13738 | 24.66717 | 18653 ft | 388 kts | 58° |
| 2026-04-17 17:02 | -34.12771 | 24.69750 | 18426 ft | 387 kts | 58° |
| 2026-04-17 17:02 | -34.11808 | 24.72773 | 18200 ft | 386 kts | 58° |
| 2026-04-17 17:02 | -34.10845 | 24.75797 | 17971 ft | 385 kts | 58° |
| 2026-04-17 17:02 | -34.09888 | 24.78803 | 17699 ft | 383 kts | 58° |
| 2026-04-17 17:03 | -34.08934 | 24.81801 | 17436 ft | 381 kts | 58° |
| 2026-04-17 17:03 | -34.07986 | 24.84780 | 17177 ft | 380 kts | 59° |
| 2026-04-17 17:03 | -34.07040 | 24.87749 | 16916 ft | 378 kts | 59° |
| 2026-04-17 17:03 | -34.06101 | 24.90700 | 16656 ft | 376 kts | 59° |
| 2026-04-17 17:04 | -34.05164 | 24.93641 | 16394 ft | 374 kts | 59° |
| 2026-04-17 17:04 | -34.04233 | 24.96560 | 16160 ft | 372 kts | 59° |
| 2026-04-17 17:04 | -34.03304 | 24.99470 | 15911 ft | 371 kts | 59° |
| 2026-04-17 17:04 | -34.02380 | 25.02367 | 15646 ft | 369 kts | 59° |
| 2026-04-17 17:05 | -34.01461 | 25.05248 | 15406 ft | 368 kts | 59° |
| 2026-04-17 17:05 | -34.00545 | 25.08121 | 15159 ft | 366 kts | 59° |
| 2026-04-17 17:05 | -33.99642 | 25.10958 | 15197 ft | 360 kts | 59° |
| 2026-04-17 17:05 | -33.98723 | 25.13813 | 14777 ft | 371 kts | 59° |
| 2026-04-17 17:06 | -33.97803 | 25.16705 | 14269 ft | 367 kts | 60° |
| 2026-04-17 17:06 | -33.96910 | 25.19517 | 13766 ft | 362 kts | 60° |
| 2026-04-17 17:06 | -33.96004 | 25.22369 | 13232 ft | 357 kts | 60° |
| 2026-04-17 17:06 | -33.95132 | 25.25110 | 12772 ft | 352 kts | 60° |
| 2026-04-17 17:07 | -33.94264 | 25.27839 | 12287 ft | 346 kts | 60° |
| 2026-04-17 17:07 | -33.93412 | 25.30526 | 11842 ft | 341 kts | 60° |
| 2026-04-17 17:07 | -33.92569 | 25.33170 | 11342 ft | 336 kts | 61° |
| 2026-04-17 17:07 | -33.91741 | 25.35778 | 10949 ft | 330 kts | 61° |
| 2026-04-17 17:08 | -33.90923 | 25.38340 | 10482 ft | 326 kts | 61° |
| 2026-04-17 17:08 | -33.90117 | 25.40876 | 10059 ft | 322 kts | 61° |
| 2026-04-17 17:08 | -33.89317 | 25.43386 | 9644 ft | 319 kts | 62° |
| 2026-04-17 17:08 | -33.88526 | 25.45876 | 9202 ft | 317 kts | 62° |
| 2026-04-17 17:09 | -33.87746 | 25.48333 | 8807 ft | 312 kts | 62° |
| 2026-04-17 17:09 | -33.86971 | 25.50764 | 8380 ft | 309 kts | 63° |
| 2026-04-17 17:09 | -33.86206 | 25.53170 | 7972 ft | 306 kts | 63° |
| 2026-04-17 17:09 | -33.85450 | 25.55552 | 7570 ft | 303 kts | 63° |
| 2026-04-17 17:10 | -33.84700 | 25.57909 | 7172 ft | 301 kts | 64° |
| 2026-04-17 17:10 | -33.83957 | 25.60249 | 6779 ft | 298 kts | 64° |
| 2026-04-17 17:10 | -33.83219 | 25.62570 | 6390 ft | 296 kts | 65° |
| 2026-04-17 17:10 | -33.82488 | 25.64878 | 5992 ft | 294 kts | 65° |
| 2026-04-17 17:11 | -33.81709 | 25.67135 | 5596 ft | 288 kts | 56° |
| 2026-04-17 17:11 | -33.80402 | 25.68864 | 5261 ft | 275 kts | 32° |
| 2026-04-17 17:11 | -33.78846 | 25.70102 | 5021 ft | 268 kts | 30° |
| 2026-04-17 17:11 | -33.77304 | 25.71311 | 4877 ft | 263 kts | 30° |
| 2026-04-17 17:12 | -33.75764 | 25.72514 | 4733 ft | 265 kts | 30° |
| 2026-04-17 17:12 | -33.74210 | 25.73710 | 4598 ft | 266 kts | 30° |
| 2026-04-17 17:12 | -33.72648 | 25.74901 | 4462 ft | 266 kts | 30° |
| 2026-04-17 17:12 | -33.71085 | 25.76084 | 4300 ft | 265 kts | 30° |
| 2026-04-17 17:13 | -33.69540 | 25.77248 | 4144 ft | 259 kts | 30° |
| 2026-04-17 17:13 | -33.68025 | 25.78384 | 4014 ft | 252 kts | 30° |
| 2026-04-17 17:13 | -33.66554 | 25.79488 | 4029 ft | 249 kts | 30° |
| 2026-04-17 17:13 | -33.65122 | 25.80653 | 4005 ft | 250 kts | 42° |
| 2026-04-17 17:14 | -33.64213 | 25.82431 | 4049 ft | 257 kts | 73° |
| 2026-04-17 17:14 | -33.64215 | 25.84575 | 4049 ft | 262 kts | 106° |
| 2026-04-17 17:14 | -33.65168 | 25.86412 | 4069 ft | 263 kts | 139° |
| 2026-04-17 17:15 | -33.68299 | 25.88699 | 4147 ft | 265 kts | 150° |
| 2026-04-17 17:15 | -33.69892 | 25.89817 | 4099 ft | 264 kts | 150° |
| 2026-04-17 17:15 | -33.71472 | 25.90927 | 4005 ft | 262 kts | 150° |
| 2026-04-17 17:15 | -33.73020 | 25.92018 | 4006 ft | 262 kts | 150° |
| 2026-04-17 17:16 | -33.74599 | 25.93089 | 3999 ft | 260 kts | 158° |
| 2026-04-17 17:16 | -33.76359 | 25.93416 | 4001 ft | 258 kts | 190° |
| 2026-04-17 17:16 | -33.78077 | 25.92822 | 4046 ft | 259 kts | 201° |
| 2026-04-17 17:16 | -33.79742 | 25.92052 | 4031 ft | 251 kts | 212° |
| 2026-04-17 17:17 | -33.81151 | 25.90926 | 4000 ft | 236 kts | 215° |
| 2026-04-17 17:17 | -33.82555 | 25.89989 | 3974 ft | 226 kts | 208° |
| 2026-04-17 17:17 | -33.83942 | 25.89179 | 3965 ft | 215 kts | 212° |
| 2026-04-17 17:17 | -33.84967 | 25.87949 | 4137 ft | 212 kts | 241° |
| 2026-04-17 17:18 | -33.85661 | 25.86378 | 4200 ft | 213 kts | 244° |
| 2026-04-17 17:18 | -33.86488 | 25.84866 | 4092 ft | 220 kts | 237° |
| 2026-04-17 17:18 | -33.87319 | 25.83344 | 4011 ft | 213 kts | 240° |
| 2026-04-17 17:18 | -33.88079 | 25.81809 | 3967 ft | 215 kts | 241° |
| 2026-04-17 17:19 | -33.88880 | 25.80264 | 3667 ft | 217 kts | 238° |
| 2026-04-17 17:19 | -33.89701 | 25.78745 | 3366 ft | 213 kts | 239° |
| 2026-04-17 17:19 | -33.90439 | 25.77291 | 3092 ft | 199 kts | 239° |
| 2026-04-17 17:19 | -33.91144 | 25.75922 | 2827 ft | 187 kts | 237° |
| 2026-04-17 17:20 | -33.91828 | 25.74610 | 2576 ft | 182 kts | 237° |
| 2026-04-17 17:20 | -33.92491 | 25.73335 | 2344 ft | 178 kts | 237° |
| 2026-04-17 17:20 | -33.93129 | 25.72103 | 2111 ft | 168 kts | 237° |
| 2026-04-17 17:20 | -33.93720 | 25.70965 | 1897 ft | 153 kts | 238° |
| 2026-04-17 17:21 | -33.94256 | 25.69928 | 1690 ft | 138 kts | 238° |
| 2026-04-17 17:21 | -33.94743 | 25.68985 | 1521 ft | 130 kts | 238° |
| 2026-04-17 17:21 | -33.95224 | 25.68056 | 1364 ft | 130 kts | 238° |
| 2026-04-17 17:21 | -33.95701 | 25.67136 | 1171 ft | 130 kts | 238° |
| 2026-04-17 17:22 | -33.96176 | 25.66214 | 1033 ft | 130 kts | 238° |
| 2026-04-17 17:22 | -33.96663 | 25.65273 | 844 ft | 133 kts | 239° |
| 2026-04-17 17:22 | -33.97143 | 25.64345 | 686 ft | 130 kts | 237° |
| 2026-04-17 17:22 | -33.97614 | 25.63410 | 509 ft | 127 kts | 238° |
| 2026-04-17 17:23 | -33.98082 | 25.62520 | 315 ft | 125 kts | 239° |
| 2026-04-17 17:23 | -33.98538 | 25.61627 | 213 ft | 123 kts | 234° |
| 2026-04-17 17:23 | -33.98927 | 25.60878 | 209 ft | 89 kts | 239° |
| 2026-04-17 17:23 | -33.99187 | 25.60401 | 200 ft | 48 kts | 239° |
| 2026-04-17 17:24 | -33.99276 | 25.60196 | 199 ft | 10 kts | 257° |
| 2026-04-17 17:24 | -33.99260 | 25.60158 | 200 ft | 5 kts | 316° |
| 2026-04-17 17:24 | -33.99224 | 25.60129 | 201 ft | 7 kts | 327° |
| 2026-04-17 17:24 | -33.99201 | 25.60111 | 207 ft | 0 kts | 329° |
| 2026-04-17 17:26 | -33.99198 | 25.60109 | 197 ft | 1 kts | 329° |
| 2026-04-17 17:26 | -33.99187 | 25.60102 | 209 ft | 3 kts | 330° |
| 2026-04-17 17:26 | -33.99172 | 25.60093 | 197 ft | 4 kts | 338° |
| 2026-04-17 17:26 | -33.99139 | 25.60089 | 198 ft | 5 kts | 5° |
| 2026-04-17 17:27 | -33.99105 | 25.60121 | 204 ft | 8 kts | 53° |
| 2026-04-17 17:27 | -33.99071 | 25.60184 | 203 ft | 10 kts | 57° |
| 2026-04-17 17:27 | -33.99032 | 25.60257 | 198 ft | 11 kts | 57° |
| 2026-04-17 17:27 | -33.98989 | 25.60339 | 204 ft | 12 kts | 57° |
| 2026-04-17 17:28 | -33.98941 | 25.60429 | 210 ft | 13 kts | 57° |
| 2026-04-17 17:28 | -33.98888 | 25.60527 | 206 ft | 14 kts | 57° |
| 2026-04-17 17:28 | -33.98832 | 25.60632 | 206 ft | 15 kts | 57° |
| 2026-04-17 17:28 | -33.98771 | 25.60742 | 205 ft | 16 kts | 57° |
| 2026-04-17 17:29 | -33.98708 | 25.60861 | 204 ft | 17 kts | 57° |
| 2026-04-17 17:29 | -33.98638 | 25.60984 | 204 ft | 18 kts | 56° |
| 2026-04-17 17:29 | -33.98581 | 25.61075 | 203 ft | 2 kts | 23° |
| 2026-04-17 17:29 | -33.98573 | 25.61071 | 203 ft | 1 kts | 347° |
| 2026-04-17 17:30 | -33.98563 | 25.61064 | 203 ft | 2 kts | 330° |
| 2026-04-17 17:30 | -33.98547 | 25.61053 | 203 ft | 2 kts | 329° |
| 2026-04-17 17:30 | -33.98540 | 25.61048 | 203 ft | 0 kts | 327° |